sensor_id;sensor_type;location;lat;lon;timestamp;pressure;altitude;pressure_sealevel;temperature;humidity
56084;BME280;41958;52.416;13.428;2022-08-25T00:01:00;101530.22;;;18.88;100.00
56084;BME280;41958;52.416;13.428;2022-08-25T00:03:26;101527.88;;;18.94;100.00
56084;BME280;41958;52.416;13.428;2022-08-25T00:05:51;101527.81;;;18.90;100.00
56084;BME280;41958;52.416;13.428;2022-08-25T00:08:16;101528.22;;;18.92;100.00
56084;BME280;41958;52.416;13.428;2022-08-25T00:10:41;101519.38;;;18.94;100.00
56084;BME280;41958;52.416;13.428;2022-08-25T00:13:07;101520.44;;;18.85;100.00
56084;BME280;41958;52.416;13.428;2022-08-25T00:15:34;101529.69;;;18.79;100.00
56084;BME280;41958;52.416;13.428;2022-08-25T00:17:59;101519.09;;;18.72;100.00
56084;BME280;41958;52.416;13.428;2022-08-25T00:20:26;101512.22;;;18.73;100.00
56084;BME280;41958;52.416;13.428;2022-08-25T00:22:52;101526.81;;;18.75;100.00
56084;BME280;41958;52.416;13.428;2022-08-25T00:25:18;101519.91;;;18.73;100.00
56084;BME280;41958;52.416;13.428;2022-08-25T00:27:43;101513.91;;;18.78;100.00
56084;BME280;41958;52.416;13.428;2022-08-25T00:30:10;101510.63;;;18.76;100.00
56084;BME280;41958;52.416;13.428;2022-08-25T00:32:36;101506.09;;;18.67;100.00
56084;BME280;41958;52.416;13.428;2022-08-25T00:35:02;101504.94;;;18.72;100.00
56084;BME280;41958;52.416;13.428;2022-08-25T00:37:28;101504.09;;;18.68;100.00
56084;BME280;41958;52.416;13.428;2022-08-25T00:39:53;101506.44;;;18.62;100.00
56084;BME280;41958;52.416;13.428;2022-08-25T00:42:21;101499.16;;;18.61;100.00
56084;BME280;41958;52.416;13.428;2022-08-25T00:44:46;101499.22;;;18.68;100.00
56084;BME280;41958;52.416;13.428;2022-08-25T00:47:12;101506.88;;;18.64;100.00
56084;BME280;41958;52.416;13.428;2022-08-25T00:49:41;101504.84;;;18.65;100.00
56084;BME280;41958;52.416;13.428;2022-08-25T00:52:13;101500.75;;;18.59;100.00
56084;BME280;41958;52.416;13.428;2022-08-25T00:54:59;101507.16;;;18.56;100.00
56084;BME280;41958;52.416;13.428;2022-08-25T00:57:32;101504.78;;;18.58;100.00
56084;BME280;41958;52.416;13.428;2022-08-25T00:59:58;101515.28;;;18.57;100.00
56084;BME280;41958;52.416;13.428;2022-08-25T01:02:24;101511.16;;;18.51;100.00
56084;BME280;41958;52.416;13.428;2022-08-25T01:04:50;101510.44;;;18.58;100.00
56084;BME280;41958;52.416;13.428;2022-08-25T01:07:17;101512.81;;;18.56;100.00
56084;BME280;41958;52.416;13.428;2022-08-25T01:09:46;101512.34;;;18.46;100.00
56084;BME280;41958;52.416;13.428;2022-08-25T01:12:13;101522.03;;;18.45;100.00
56084;BME280;41958;52.416;13.428;2022-08-25T01:14:39;101518.78;;;18.47;100.00
56084;BME280;41958;52.416;13.428;2022-08-25T01:17:04;101509.88;;;18.45;100.00
56084;BME280;41958;52.416;13.428;2022-08-25T01:19:30;101509.44;;;18.43;100.00
56084;BME280;41958;52.416;13.428;2022-08-25T01:21:59;101510.19;;;18.36;100.00
56084;BME280;41958;52.416;13.428;2022-08-25T01:24:31;101508.50;;;18.31;100.00
56084;BME280;41958;52.416;13.428;2022-08-25T01:27:00;101503.59;;;18.28;100.00
56084;BME280;41958;52.416;13.428;2022-08-25T01:29:26;101500.34;;;18.26;100.00
56084;BME280;41958;52.416;13.428;2022-08-25T01:31:58;101507.66;;;18.27;100.00
56084;BME280;41958;52.416;13.428;2022-08-25T01:34:27;101509.19;;;18.21;100.00
56084;BME280;41958;52.416;13.428;2022-08-25T01:36:53;101514.38;;;18.19;100.00
56084;BME280;41958;52.416;13.428;2022-08-25T01:39:19;101511.94;;;18.17;100.00
56084;BME280;41958;52.416;13.428;2022-08-25T01:44:28;101512.34;;;18.16;100.00
56084;BME280;41958;52.416;13.428;2022-08-25T01:46:53;101509.13;;;18.17;100.00
56084;BME280;41958;52.416;13.428;2022-08-25T01:49:19;101505.91;;;18.19;100.00
56084;BME280;41958;52.416;13.428;2022-08-25T01:51:56;101497.81;;;18.17;100.00
56084;BME280;41958;52.416;13.428;2022-08-25T01:54:21;101508.66;;;18.12;100.00
56084;BME280;41958;52.416;13.428;2022-08-25T01:56:46;101512.25;;;18.09;100.00
56084;BME280;41958;52.416;13.428;2022-08-25T01:59:15;101507.88;;;18.15;100.00
56084;BME280;41958;52.416;13.428;2022-08-25T02:01:41;101502.13;;;18.08;100.00
56084;BME280;41958;52.416;13.428;2022-08-25T02:04:06;101506.16;;;18.07;100.00
56084;BME280;41958;52.416;13.428;2022-08-25T02:06:32;101504.03;;;18.00;100.00
56084;BME280;41958;52.416;13.428;2022-08-25T02:09:08;101492.72;;;18.00;100.00
56084;BME280;41958;52.416;13.428;2022-08-25T02:11:37;101498.34;;;17.96;100.00
56084;BME280;41958;52.416;13.428;2022-08-25T02:14:05;101495.06;;;17.94;100.00
56084;BME280;41958;52.416;13.428;2022-08-25T02:16:33;101497.50;;;17.96;100.00
56084;BME280;41958;52.416;13.428;2022-08-25T02:18:59;101490.72;;;18.00;100.00
56084;BME280;41958;52.416;13.428;2022-08-25T02:21:25;101493.88;;;17.95;100.00
56084;BME280;41958;52.416;13.428;2022-08-25T02:23:51;101493.44;;;17.93;100.00
56084;BME280;41958;52.416;13.428;2022-08-25T02:26:17;101491.44;;;17.94;100.00
56084;BME280;41958;52.416;13.428;2022-08-25T02:28:45;101482.50;;;17.92;100.00
56084;BME280;41958;52.416;13.428;2022-08-25T02:31:12;101482.84;;;17.90;100.00
56084;BME280;41958;52.416;13.428;2022-08-25T02:33:38;101482.84;;;17.90;100.00
56084;BME280;41958;52.416;13.428;2022-08-25T02:36:04;101481.66;;;17.91;100.00
56084;BME280;41958;52.416;13.428;2022-08-25T02:38:29;101472.03;;;17.92;100.00
56084;BME280;41958;52.416;13.428;2022-08-25T02:40:55;101476.84;;;17.92;100.00
56084;BME280;41958;52.416;13.428;2022-08-25T02:43:21;101475.28;;;17.94;100.00
56084;BME280;41958;52.416;13.428;2022-08-25T02:45:46;101468.72;;;17.90;100.00
56084;BME280;41958;52.416;13.428;2022-08-25T02:48:12;101471.47;;;17.83;100.00
56084;BME280;41958;52.416;13.428;2022-08-25T02:50:37;101473.81;;;17.77;100.00
56084;BME280;41958;52.416;13.428;2022-08-25T02:53:02;101473.38;;;17.75;100.00
56084;BME280;41958;52.416;13.428;2022-08-25T02:55:28;101478.59;;;17.73;100.00
56084;BME280;41958;52.416;13.428;2022-08-25T02:57:53;101474.06;;;17.68;100.00
56084;BME280;41958;52.416;13.428;2022-08-25T03:00:18;101471.94;;;17.62;100.00
56084;BME280;41958;52.416;13.428;2022-08-25T03:02:44;101469.50;;;17.60;100.00
56084;BME280;41958;52.416;13.428;2022-08-25T03:05:10;101476.31;;;17.56;100.00
56084;BME280;41958;52.416;13.428;2022-08-25T03:07:36;101465.75;;;17.52;100.00
56084;BME280;41958;52.416;13.428;2022-08-25T03:10:11;101458.09;;;17.53;100.00
56084;BME280;41958;52.416;13.428;2022-08-25T03:12:37;101465.81;;;17.56;100.00
56084;BME280;41958;52.416;13.428;2022-08-25T03:15:03;101458.53;;;17.55;100.00
56084;BME280;41958;52.416;13.428;2022-08-25T03:17:28;101455.69;;;17.55;100.00
56084;BME280;41958;52.416;13.428;2022-08-25T03:19:53;101451.59;;;17.49;100.00
56084;BME280;41958;52.416;13.428;2022-08-25T03:22:19;101465.66;;;17.45;100.00
56084;BME280;41958;52.416;13.428;2022-08-25T03:24:45;101455.97;;;17.46;100.00
56084;BME280;41958;52.416;13.428;2022-08-25T03:27:10;101446.69;;;17.46;100.00
56084;BME280;41958;52.416;13.428;2022-08-25T03:29:35;101451.13;;;17.47;100.00
56084;BME280;41958;52.416;13.428;2022-08-25T03:32:01;101452.78;;;17.48;100.00
56084;BME280;41958;52.416;13.428;2022-08-25T03:34:28;101436.63;;;17.48;100.00
56084;BME280;41958;52.416;13.428;2022-08-25T03:36:55;101446.81;;;17.53;100.00
56084;BME280;41958;52.416;13.428;2022-08-25T03:39:22;101444.28;;;17.48;100.00
56084;BME280;41958;52.416;13.428;2022-08-25T03:41:48;101444.28;;;17.48;100.00
56084;BME280;41958;52.416;13.428;2022-08-25T03:44:15;101446.41;;;17.55;100.00
56084;BME280;41958;52.416;13.428;2022-08-25T03:46:45;101444.78;;;17.53;100.00
56084;BME280;41958;52.416;13.428;2022-08-25T03:49:14;101441.09;;;17.49;100.00
56084;BME280;41958;52.416;13.428;2022-08-25T03:51:43;101447.19;;;17.51;100.00
56084;BME280;41958;52.416;13.428;2022-08-25T03:54:11;101450.34;;;17.46;100.00
56084;BME280;41958;52.416;13.428;2022-08-25T03:56:37;101443.44;;;17.44;100.00
56084;BME280;41958;52.416;13.428;2022-08-25T03:59:02;101443.81;;;17.42;100.00
56084;BME280;41958;52.416;13.428;2022-08-25T04:01:28;101445.88;;;17.45;100.00
56084;BME280;41958;52.416;13.428;2022-08-25T04:03:54;101440.22;;;17.45;100.00
56084;BME280;41958;52.416;13.428;2022-08-25T04:06:20;101443.88;;;17.46;100.00
56084;BME280;41958;52.416;13.428;2022-08-25T04:08:45;101458.03;;;17.49;100.00
56084;BME280;41958;52.416;13.428;2022-08-25T04:11:17;101453.16;;;17.46;100.00
56084;BME280;41958;52.416;13.428;2022-08-25T04:13:44;101456.03;;;17.50;100.00
56084;BME280;41958;52.416;13.428;2022-08-25T04:16:23;101448.47;;;17.58;100.00
56084;BME280;41958;52.416;13.428;2022-08-25T04:18:49;101454.03;;;17.50;100.00
56084;BME280;41958;52.416;13.428;2022-08-25T04:21:16;101453.22;;;17.50;100.00
56084;BME280;41958;52.416;13.428;2022-08-25T04:23:43;101452.38;;;17.49;100.00
56084;BME280;41958;52.416;13.428;2022-08-25T04:28:39;101466.19;;;17.55;100.00
56084;BME280;41958;52.416;13.428;2022-08-25T04:31:06;101469.50;;;17.60;100.00
56084;BME280;41958;52.416;13.428;2022-08-25T04:33:32;101470.00;;;17.66;100.00
56084;BME280;41958;52.416;13.428;2022-08-25T04:35:57;101472.72;;;17.59;100.00
56084;BME280;41958;52.416;13.428;2022-08-25T04:38:23;101461.34;;;17.55;100.00
56084;BME280;41958;52.416;13.428;2022-08-25T04:40:55;101475.22;;;17.64;100.00
56084;BME280;41958;52.416;13.428;2022-08-25T04:43:20;101475.22;;;17.64;100.00
56084;BME280;41958;52.416;13.428;2022-08-25T04:45:45;101479.25;;;17.63;100.00
56084;BME280;41958;52.416;13.428;2022-08-25T04:48:11;101482.13;;;17.66;100.00
56084;BME280;41958;52.416;13.428;2022-08-25T04:50:38;101468.03;;;17.70;100.00
56084;BME280;41958;52.416;13.428;2022-08-25T04:53:03;101475.66;;;17.66;100.00
56084;BME280;41958;52.416;13.428;2022-08-25T04:55:28;101477.34;;;17.70;100.00
56084;BME280;41958;52.416;13.428;2022-08-25T04:57:53;101464.34;;;17.66;100.00
56084;BME280;41958;52.416;13.428;2022-08-25T05:00:19;101479.00;;;17.75;100.00
56084;BME280;41958;52.416;13.428;2022-08-25T05:02:55;101476.56;;;17.74;100.00
56084;BME280;41958;52.416;13.428;2022-08-25T05:05:38;101470.81;;;17.93;100.00
56084;BME280;41958;52.416;13.428;2022-08-25T05:08:04;101466.22;;;17.85;100.00
56084;BME280;41958;52.416;13.428;2022-08-25T05:10:31;101471.19;;;17.92;100.00
56084;BME280;41958;52.416;13.428;2022-08-25T05:12:56;101467.47;;;17.87;100.00
56084;BME280;41958;52.416;13.428;2022-08-25T05:15:21;101463.22;;;17.97;100.00
56084;BME280;41958;52.416;13.428;2022-08-25T05:18:05;101462.78;;;17.95;100.00
56084;BME280;41958;52.416;13.428;2022-08-25T05:20:30;101464.41;;;17.96;100.00
56084;BME280;41958;52.416;13.428;2022-08-25T05:22:56;101465.97;;;17.94;100.00
56084;BME280;41958;52.416;13.428;2022-08-25T05:25:22;101480.03;;;17.90;100.00
56084;BME280;41958;52.416;13.428;2022-08-25T05:27:48;101485.41;;;17.95;100.00
56084;BME280;41958;52.416;13.428;2022-08-25T05:30:13;101484.59;;;17.95;100.00
56084;BME280;41958;52.416;13.428;2022-08-25T05:32:38;101491.72;;;17.89;100.00
56084;BME280;41958;52.416;13.428;2022-08-25T05:35:05;101484.34;;;18.07;100.00
56084;BME280;41958;52.416;13.428;2022-08-25T05:37:31;101485.41;;;17.95;100.00
56084;BME280;41958;52.416;13.428;2022-08-25T05:39:57;101485.53;;;18.06;100.00
56084;BME280;41958;52.416;13.428;2022-08-25T05:42:23;101478.38;;;18.12;100.00
56084;BME280;41958;52.416;13.428;2022-08-25T05:44:48;101480.66;;;18.03;100.00
56084;BME280;41958;52.416;13.428;2022-08-25T05:47:14;101486.09;;;18.19;100.00
56084;BME280;41958;52.416;13.428;2022-08-25T05:49:39;101485.47;;;18.33;100.00
56084;BME280;41958;52.416;13.428;2022-08-25T05:52:04;101481.75;;;18.25;100.00
56084;BME280;41958;52.416;13.428;2022-08-25T05:54:30;101484.81;;;18.13;100.00
56084;BME280;41958;52.416;13.428;2022-08-25T05:56:56;101487.94;;;18.04;100.00
56084;BME280;41958;52.416;13.428;2022-08-25T05:59:21;101482.78;;;18.10;100.00
56084;BME280;41958;52.416;13.428;2022-08-25T06:01:47;101491.72;;;18.15;100.00
56084;BME280;41958;52.416;13.428;2022-08-25T06:04:30;101480.09;;;18.24;100.00
56084;BME280;41958;52.416;13.428;2022-08-25T06:06:56;101484.91;;;18.20;100.00
56084;BME280;41958;52.416;13.428;2022-08-25T06:09:22;101481.47;;;18.03;100.00
56084;BME280;41958;52.416;13.428;2022-08-25T06:11:48;101488.44;;;18.10;100.00
56084;BME280;41958;52.416;13.428;2022-08-25T06:14:14;101490.34;;;18.02;100.00
56084;BME280;41958;52.416;13.428;2022-08-25T06:16:39;101494.38;;;18.35;100.00
56084;BME280;41958;52.416;13.428;2022-08-25T06:19:06;101483.06;;;18.35;100.00
56084;BME280;41958;52.416;13.428;2022-08-25T06:21:31;101478.63;;;18.34;100.00
56084;BME280;41958;52.416;13.428;2022-08-25T06:23:56;101484.09;;;18.53;100.00
56084;BME280;41958;52.416;13.428;2022-08-25T06:26:22;101485.38;;;18.26;100.00
56084;BME280;41958;52.416;13.428;2022-08-25T06:28:51;101482.28;;;18.34;100.00
56084;BME280;41958;52.416;13.428;2022-08-25T06:31:18;101490.75;;;18.34;100.00
56084;BME280;41958;52.416;13.428;2022-08-25T06:33:44;101485.47;;;18.33;100.00
56084;BME280;41958;52.416;13.428;2022-08-25T06:36:09;101492.53;;;18.46;100.00
56084;BME280;41958;52.416;13.428;2022-08-25T06:38:34;101497.00;;;18.51;100.00
56084;BME280;41958;52.416;13.428;2022-08-25T06:41:04;101483.72;;;18.55;100.00
56084;BME280;41958;52.416;13.428;2022-08-25T06:43:31;101496.06;;;18.74;100.00
56084;BME280;41958;52.416;13.428;2022-08-25T06:45:57;101502.06;;;18.68;100.00
56084;BME280;41958;52.416;13.428;2022-08-25T06:48:22;101502.16;;;18.42;100.00
56084;BME280;41958;52.416;13.428;2022-08-25T06:50:48;101503.19;;;18.60;100.00
56084;BME280;41958;52.416;13.428;2022-08-25T06:53:13;101500.03;;;18.69;100.00
56084;BME280;41958;52.416;13.428;2022-08-25T06:55:38;101506.06;;;18.64;100.00
56084;BME280;41958;52.416;13.428;2022-08-25T06:58:04;101496.81;;;18.70;100.00
56084;BME280;41958;52.416;13.428;2022-08-25T07:00:30;101509.88;;;18.82;100.00
56084;BME280;41958;52.416;13.428;2022-08-25T07:02:56;101509.38;;;18.69;100.00
56084;BME280;41958;52.416;13.428;2022-08-25T07:05:21;101502.63;;;18.85;100.00
56084;BME280;41958;52.416;13.428;2022-08-25T07:07:47;101505.31;;;19.08;100.00
56084;BME280;41958;52.416;13.428;2022-08-25T07:10:12;101494.03;;;19.12;100.00
56084;BME280;41958;52.416;13.428;2022-08-25T07:12:38;101498.06;;;19.11;100.00
56084;BME280;41958;52.416;13.428;2022-08-25T07:15:04;101500.00;;;19.03;100.00
56084;BME280;41958;52.416;13.428;2022-08-25T07:17:29;101491.06;;;18.97;100.00
56084;BME280;41958;52.416;13.428;2022-08-25T07:19:55;101491.25;;;19.19;100.00
56084;BME280;41958;52.416;13.428;2022-08-25T07:22:20;101490.81;;;19.13;100.00
56084;BME280;41958;52.416;13.428;2022-08-25T07:24:45;101492.41;;;19.11;100.00
56084;BME280;41958;52.416;13.428;2022-08-25T07:27:10;101491.50;;;19.03;100.00
56084;BME280;41958;52.416;13.428;2022-08-25T07:29:36;101482.66;;;19.08;100.00
56084;BME280;41958;52.416;13.428;2022-08-25T07:32:04;101485.69;;;19.30;100.00
56084;BME280;41958;52.416;13.428;2022-08-25T07:34:30;101482.19;;;19.47;100.00
56084;BME280;41958;52.416;13.428;2022-08-25T07:37:15;101478.94;;;19.49;100.00
56084;BME280;41958;52.416;13.428;2022-08-25T07:39:40;101480.16;;;19.48;100.00
56084;BME280;41958;52.416;13.428;2022-08-25T07:42:06;101480.00;;;19.30;100.00
56084;BME280;41958;52.416;13.428;2022-08-25T07:44:32;101482.94;;;19.41;100.00
56084;BME280;41958;52.416;13.428;2022-08-25T07:46:58;101476.94;;;19.53;100.00
56084;BME280;41958;52.416;13.428;2022-08-25T07:49:24;101487.53;;;19.56;100.00
56084;BME280;41958;52.416;13.428;2022-08-25T07:51:53;101490.78;;;19.62;100.00
56084;BME280;41958;52.416;13.428;2022-08-25T07:54:19;101483.44;;;19.53;100.00
56084;BME280;41958;52.416;13.428;2022-08-25T07:56:44;101482.69;;;19.64;100.00
56084;BME280;41958;52.416;13.428;2022-08-25T07:59:09;101477.69;;;20.02;100.00
56084;BME280;41958;52.416;13.428;2022-08-25T08:01:36;101484.59;;;20.04;100.00
56084;BME280;41958;52.416;13.428;2022-08-25T08:04:02;101482.53;;;19.98;100.00
56084;BME280;41958;52.416;13.428;2022-08-25T08:06:27;101477.63;;;19.91;100.00
56084;BME280;41958;52.416;13.428;2022-08-25T08:08:53;101468.03;;;20.17;100.00
56084;BME280;41958;52.416;13.428;2022-08-25T08:11:23;101473.38;;;20.33;100.00
56084;BME280;41958;52.416;13.428;2022-08-25T08:13:50;101468.84;;;20.18;100.00
56084;BME280;41958;52.416;13.428;2022-08-25T08:16:17;101471.78;;;20.43;100.00
56084;BME280;41958;52.416;13.428;2022-08-25T08:18:43;101477.03;;;20.41;100.00
56084;BME280;41958;52.416;13.428;2022-08-25T08:21:12;101473.00;;;20.42;100.00
56084;BME280;41958;52.416;13.428;2022-08-25T08:23:38;101473.38;;;20.33;100.00
56084;BME280;41958;52.416;13.428;2022-08-25T08:26:03;101474.34;;;20.84;100.00
56084;BME280;41958;52.416;13.428;2022-08-25T08:28:29;101473.53;;;20.80;100.00
56084;BME280;41958;52.416;13.428;2022-08-25T08:30:55;101472.75;;;21.12;100.00
56084;BME280;41958;52.416;13.428;2022-08-25T08:33:21;101471.94;;;21.22;100.00
56084;BME280;41958;52.416;13.428;2022-08-25T08:35:54;101469.47;;;21.17;100.00
56084;BME280;41958;52.416;13.428;2022-08-25T08:38:19;101461.78;;;21.29;100.00
56084;BME280;41958;52.416;13.428;2022-08-25T08:40:56;101466.63;;;21.75;100.00
56084;BME280;41958;52.416;13.428;2022-08-25T08:43:43;101455.53;;;22.13;100.00
56084;BME280;41958;52.416;13.428;2022-08-25T08:46:12;101452.25;;;22.18;100.00
56084;BME280;41958;52.416;13.428;2022-08-25T08:49:04;101448.47;;;22.47;100.00
56084;BME280;41958;52.416;13.428;2022-08-25T08:51:44;101448.13;;;23.01;100.00
56084;BME280;41958;52.416;13.428;2022-08-25T08:54:16;101444.09;;;22.95;100.00
56084;BME280;41958;52.416;13.428;2022-08-25T08:56:46;101436.88;;;22.79;100.00
56084;BME280;41958;52.416;13.428;2022-08-25T08:59:18;101454.00;;;22.72;100.00
56084;BME280;41958;52.416;13.428;2022-08-25T09:01:52;101447.88;;;22.77;100.00
56084;BME280;41958;52.416;13.428;2022-08-25T09:04:45;101459.34;;;22.70;100.00
56084;BME280;41958;52.416;13.428;2022-08-25T09:07:16;101445.16;;;23.15;99.19
56084;BME280;41958;52.416;13.428;2022-08-25T09:09:43;101444.94;;;23.40;96.98
56084;BME280;41958;52.416;13.428;2022-08-25T09:12:19;101443.66;;;23.45;95.83
56084;BME280;41958;52.416;13.428;2022-08-25T09:20:51;101436.16;;;23.62;98.94
56084;BME280;41958;52.416;13.428;2022-08-25T09:24:11;101427.75;;;23.86;94.01
56084;BME280;41958;52.416;13.428;2022-08-25T09:29:06;101424.97;;;24.13;92.86
56084;BME280;41958;52.416;13.428;2022-08-25T09:31:36;101410.16;;;24.26;90.83
56084;BME280;41958;52.416;13.428;2022-08-25T09:34:05;101417.66;;;25.21;90.36
56084;BME280;41958;52.416;13.428;2022-08-25T09:36:32;101406.09;;;25.05;86.16
56084;BME280;41958;52.416;13.428;2022-08-25T09:38:58;101410.66;;;25.70;86.13
56084;BME280;41958;52.416;13.428;2022-08-25T09:44:22;101415.56;;;25.02;85.24
56084;BME280;41958;52.416;13.428;2022-08-25T09:47:12;101408.13;;;24.81;85.10
56084;BME280;41958;52.416;13.428;2022-08-25T09:49:41;101406.13;;;25.49;83.66
56084;BME280;41958;52.416;13.428;2022-08-25T09:54:58;101403.28;;;25.25;82.75
56084;BME280;41958;52.416;13.428;2022-08-25T09:57:36;101401.75;;;25.44;81.47
56084;BME280;41958;52.416;13.428;2022-08-25T10:02:38;101393.56;;;26.06;80.23
56084;BME280;41958;52.416;13.428;2022-08-25T10:05:23;101393.38;;;25.93;80.02
56084;BME280;41958;52.416;13.428;2022-08-25T10:07:54;101400.19;;;25.16;81.78
56084;BME280;41958;52.416;13.428;2022-08-25T10:12:52;101395.09;;;25.71;79.19
56084;BME280;41958;52.416;13.428;2022-08-25T10:17:48;101385.03;;;25.42;80.21
56084;BME280;41958;52.416;13.428;2022-08-25T10:20:18;101394.28;;;25.03;81.45
56084;BME280;41958;52.416;13.428;2022-08-25T10:22:45;101389.44;;;24.76;83.82
56084;BME280;41958;52.416;13.428;2022-08-25T10:25:13;101378.88;;;24.97;83.36
56084;BME280;41958;52.416;13.428;2022-08-25T10:30:36;101387.78;;;24.48;84.22
56084;BME280;41958;52.416;13.428;2022-08-25T10:38:59;101387.25;;;24.29;85.60
56084;BME280;41958;52.416;13.428;2022-08-25T10:41:35;101378.63;;;25.11;83.03
56084;BME280;41958;52.416;13.428;2022-08-25T10:44:12;101374.97;;;25.95;79.85
56084;BME280;41958;52.416;13.428;2022-08-25T10:49:45;101361.09;;;26.13;75.25
56084;BME280;41958;52.416;13.428;2022-08-25T10:54:56;101348.69;;;26.36;73.65
56084;BME280;41958;52.416;13.428;2022-08-25T10:57:31;101351.25;;;26.14;74.81
56084;BME280;41958;52.416;13.428;2022-08-25T11:02:47;101341.69;;;26.21;74.73
56084;BME280;41958;52.416;13.428;2022-08-25T11:07:59;101337.97;;;26.04;75.11
56084;BME280;41958;52.416;13.428;2022-08-25T11:10:37;101341.56;;;26.08;74.98
56084;BME280;41958;52.416;13.428;2022-08-25T11:13:09;101335.97;;;26.21;75.78
56084;BME280;41958;52.416;13.428;2022-08-25T11:15:45;101334.94;;;26.11;75.22
56084;BME280;41958;52.416;13.428;2022-08-25T11:18:14;101331.88;;;26.38;73.90
56084;BME280;41958;52.416;13.428;2022-08-25T11:20:48;101333.16;;;26.17;74.57
56084;BME280;41958;52.416;13.428;2022-08-25T11:23:26;101328.19;;;26.01;74.89
56084;BME280;41958;52.416;13.428;2022-08-25T11:25:58;101327.91;;;26.32;73.44
56084;BME280;41958;52.416;13.428;2022-08-25T11:30:55;101326.38;;;25.91;74.86
56084;BME280;41958;52.416;13.428;2022-08-25T11:33:22;101323.13;;;26.09;75.13
56084;BME280;41958;52.416;13.428;2022-08-25T11:35:53;101329.59;;;25.73;75.43
56084;BME280;41958;52.416;13.428;2022-08-25T11:38:48;101320.63;;;26.11;75.41
56084;BME280;41958;52.416;13.428;2022-08-25T11:43:58;101311.72;;;26.75;73.22
56084;BME280;41958;52.416;13.428;2022-08-25T11:52:02;101316.91;;;26.31;72.74
56084;BME280;41958;52.416;13.428;2022-08-25T11:54:37;101301.47;;;26.41;72.63
56084;BME280;41958;52.416;13.428;2022-08-25T11:57:07;101290.03;;;26.90;70.68
56084;BME280;41958;52.416;13.428;2022-08-25T12:02:40;101288.25;;;26.47;72.82
56084;BME280;41958;52.416;13.428;2022-08-25T12:07:59;101277.94;;;26.50;70.31
56084;BME280;41958;52.416;13.428;2022-08-25T12:11:04;101280.63;;;26.57;72.16
56084;BME280;41958;52.416;13.428;2022-08-25T12:13:42;101271.50;;;26.29;74.47
56084;BME280;41958;52.416;13.428;2022-08-25T12:16:30;101273.72;;;26.21;73.03
56084;BME280;41958;52.416;13.428;2022-08-25T12:22:37;101257.88;;;26.50;72.03
56084;BME280;41958;52.416;13.428;2022-08-25T12:27:35;101262.19;;;26.25;73.51
56084;BME280;41958;52.416;13.428;2022-08-25T12:30:14;101255.63;;;26.08;73.65
56084;BME280;41958;52.416;13.428;2022-08-25T12:33:08;101261.19;;;26.15;74.25
56084;BME280;41958;52.416;13.428;2022-08-25T12:35:58;101258.69;;;26.50;70.92
56084;BME280;41958;52.416;13.428;2022-08-25T12:38:49;101257.16;;;26.62;69.28
56084;BME280;41958;52.416;13.428;2022-08-25T12:41:22;101248.53;;;26.79;71.03
56084;BME280;41958;52.416;13.428;2022-08-25T12:43:49;101242.72;;;26.66;71.60
56084;BME280;41958;52.416;13.428;2022-08-25T12:49:29;101241.31;;;26.74;70.88
56084;BME280;41958;52.416;13.428;2022-08-25T12:52:05;101237.78;;;26.66;70.06
56084;BME280;41958;52.416;13.428;2022-08-25T12:54:45;101236.53;;;26.67;69.55
56084;BME280;41958;52.416;13.428;2022-08-25T12:59:50;101229.56;;;26.35;71.69
56084;BME280;41958;52.416;13.428;2022-08-25T13:08:14;101233.16;;;26.39;71.68
56084;BME280;41958;52.416;13.428;2022-08-25T13:10:49;101225.91;;;26.35;71.15
56084;BME280;41958;52.416;13.428;2022-08-25T13:13:30;101220.81;;;26.26;71.01
56084;BME280;41958;52.416;13.428;2022-08-25T13:16:03;101221.81;;;26.36;70.36
56084;BME280;41958;52.416;13.428;2022-08-25T13:18:33;101221.06;;;26.48;69.32
56084;BME280;41958;52.416;13.428;2022-08-25T13:21:17;101212.44;;;26.81;68.89
56084;BME280;41958;52.416;13.428;2022-08-25T13:23:49;101215.28;;;26.81;67.44
56084;BME280;41958;52.416;13.428;2022-08-25T13:26:21;101222.75;;;26.62;68.70
56084;BME280;41958;52.416;13.428;2022-08-25T13:29:00;101212.47;;;26.48;68.84
56084;BME280;41958;52.416;13.428;2022-08-25T13:31:26;101214.19;;;26.29;69.58
56084;BME280;41958;52.416;13.428;2022-08-25T13:33:58;101224.03;;;26.28;69.50
56084;BME280;41958;52.416;13.428;2022-08-25T13:36:25;101208.03;;;26.14;69.59
56084;BME280;41958;52.416;13.428;2022-08-25T13:39:22;101198.53;;;26.17;69.26
56084;BME280;41958;52.416;13.428;2022-08-25T13:41:53;101204.03;;;26.41;67.06
56084;BME280;41958;52.416;13.428;2022-08-25T13:44:21;101199.34;;;26.80;66.96
56084;BME280;41958;52.416;13.428;2022-08-25T13:49:31;101202.31;;;27.06;65.20
56084;BME280;41958;52.416;13.428;2022-08-25T13:51:56;101187.44;;;27.24;64.16
56084;BME280;41958;52.416;13.428;2022-08-25T13:54:33;101188.47;;;27.30;64.01
56084;BME280;41958;52.416;13.428;2022-08-25T13:57:05;101185.63;;;27.01;65.08
56084;BME280;41958;52.416;13.428;2022-08-25T13:59:37;101187.50;;;27.07;65.59
56084;BME280;41958;52.416;13.428;2022-08-25T14:02:05;101189.66;;;27.03;65.76
56084;BME280;41958;52.416;13.428;2022-08-25T14:04:32;101183.19;;;27.29;64.56
56084;BME280;41958;52.416;13.428;2022-08-25T14:09:54;101174.97;;;27.43;63.80